createdAt,value
2023-05-15T00:04:38.413Z,5.80
2023-05-15T00:09:39.160Z,7.93
2023-05-15T00:14:39.855Z,5.10
2023-05-15T00:19:41.850Z,6.38
2023-05-15T00:24:42.634Z,6.20
2023-05-15T00:29:43.401Z,7.20
2023-05-15T00:34:45.494Z,5.68
2023-05-15T00:39:46.199Z,5.70
2023-05-15T00:44:48.140Z,8.10
2023-05-15T00:49:50.654Z,9.00
2023-05-15T00:54:53.132Z,8.73
2023-05-15T00:59:53.921Z,6.70
2023-05-15T01:04:56.048Z,4.97
2023-05-15T01:09:57.301Z,6.43
2023-05-15T01:14:58.045Z,7.43
2023-05-15T01:20:01.689Z,6.93
2023-05-15T01:25:38.781Z,5.32
2023-05-15T01:30:44.472Z,6.10
2023-05-15T01:35:48.174Z,7.28
2023-05-15T01:40:49.681Z,5.22
2023-05-15T01:45:51.762Z,4.78
2023-05-15T01:50:55.560Z,6.45
2023-05-15T01:55:56.600Z,6.95
2023-05-15T02:01:00.147Z,10.43
2023-05-15T02:06:01.670Z,9.40
2023-05-15T02:11:04.199Z,7.05
2023-05-15T02:16:06.705Z,9.00
2023-05-15T02:21:07.537Z,7.38
2023-05-15T02:26:21.442Z,5.97
2023-05-15T02:31:29.737Z,6.00
2023-05-15T02:36:34.689Z,5.70
2023-05-15T02:41:37.555Z,6.45
2023-05-15T02:46:41.414Z,8.10
2023-05-15T02:51:42.129Z,6.20
2023-05-15T02:56:42.789Z,8.40
2023-05-15T03:01:44.862Z,6.20
2023-05-15T03:06:45.685Z,8.00
2023-05-15T03:11:46.346Z,7.22
2023-05-15T03:16:48.462Z,8.05
2023-05-15T03:21:49.182Z,6.35
2023-05-15T03:26:49.875Z,6.30
2023-05-15T03:31:51.974Z,6.13
2023-05-15T03:36:52.647Z,4.90
2023-05-15T03:41:53.371Z,5.50
2023-05-15T03:46:57.741Z,5.82
2023-05-15T03:51:58.619Z,6.70
2023-05-15T03:56:59.496Z,8.77
2023-05-15T04:02:04.830Z,7.72
2023-05-15T04:07:07.153Z,5.15
2023-05-15T04:12:08.167Z,8.23
2023-05-15T04:17:10.194Z,6.45
2023-05-15T04:22:10.882Z,6.07
2023-05-15T04:27:11.638Z,6.57
2023-05-15T04:32:13.650Z,6.35
2023-05-15T04:37:14.419Z,6.47
2023-05-15T04:42:16.217Z,10.15
2023-05-15T04:47:18.283Z,5.55
2023-05-15T04:52:19.047Z,7.80
2023-05-15T04:57:19.904Z,7.55
2023-05-15T05:02:23.349Z,6.70
2023-05-15T05:07:24.073Z,7.00
2023-05-15T05:12:26.049Z,9.18
2023-05-15T05:17:30.764Z,8.30
2023-05-15T05:22:31.766Z,11.77
2023-05-15T05:27:32.423Z,8.68
2023-05-15T05:32:38.112Z,9.90
2023-05-15T05:37:41.029Z,6.68
2023-05-15T05:42:42.352Z,8.18
2023-05-15T05:47:44.405Z,8.30
2023-05-15T05:52:45.330Z,9.88
2023-05-15T05:57:46.155Z,8.77
2023-05-15T06:02:48.491Z,8.77
2023-05-15T06:07:49.296Z,12.07
2023-05-15T06:12:50.294Z,10.63
2023-05-15T06:17:52.306Z,9.90
2023-05-15T06:22:53.190Z,8.90
2023-05-15T06:27:53.981Z,11.35
2023-05-15T06:32:56.104Z,10.90
2023-05-15T06:37:58.551Z,9.55
2023-05-15T06:42:59.719Z,10.38
2023-05-15T06:48:02.099Z,11.93
2023-05-15T06:53:02.928Z,7.85
2023-05-15T06:58:03.623Z,9.38
2023-05-15T07:03:06.308Z,11.95
2023-05-15T07:08:07.089Z,10.85
2023-05-15T07:13:07.793Z,8.02
2023-05-15T07:18:09.863Z,11.30
2023-05-15T07:23:10.684Z,10.27
2023-05-15T07:28:11.758Z,8.63
2023-05-15T07:33:13.863Z,8.27
2023-05-15T07:38:14.706Z,12.13
2023-05-15T07:43:15.393Z,9.82
2023-05-15T07:48:18.529Z,11.38
2023-05-15T07:53:19.729Z,10.48
2023-05-15T07:58:20.705Z,18.33
2023-05-15T08:03:23.091Z,13.98
2023-05-15T08:08:23.948Z,7.75
2023-05-15T08:13:24.709Z,9.05
2023-05-15T08:18:26.895Z,13.50
2023-05-15T08:23:27.647Z,9.45
2023-05-15T08:28:28.357Z,9.45
2023-05-15T08:33:30.404Z,10.65
2023-05-15T08:38:31.410Z,11.50
2023-05-15T08:43:36.716Z,8.18
2023-05-15T08:48:42.475Z,10.98
2023-05-15T08:53:44.033Z,8.90
2023-05-15T08:58:45.606Z,8.60
2023-05-15T09:03:47.728Z,14.70
2023-05-15T09:08:51.072Z,13.02
2023-05-15T09:13:51.937Z,8.52
2023-05-15T09:18:54.865Z,10.40
2023-05-15T09:23:57.162Z,10.82
2023-05-15T09:29:05.644Z,10.18
2023-05-15T09:34:09.610Z,10.40
2023-05-15T09:39:10.408Z,9.15
2023-05-15T09:44:21.574Z,11.65
2023-05-15T09:49:24.152Z,9.75
2023-05-15T09:54:27.407Z,10.93
2023-05-15T09:59:28.101Z,9.65
2023-05-15T10:04:35.736Z,8.50
2023-05-15T10:09:36.437Z,12.85
2023-05-15T10:14:37.170Z,14.85
2023-05-15T10:19:50.480Z,7.82
2023-05-15T10:25:03.831Z,7.80
2023-05-15T10:30:05.560Z,8.05
2023-05-15T10:35:10.664Z,8.35
2023-05-15T10:40:12.460Z,8.63
2023-05-15T10:45:13.434Z,9.00
2023-05-15T10:50:16.081Z,8.20
2023-05-15T10:55:18.559Z,8.05
2023-05-15T11:00:26.945Z,7.95
2023-05-15T11:05:31.162Z,9.48
2023-05-15T11:10:39.203Z,5.35
2023-05-15T11:15:44.311Z,11.35
2023-05-15T11:21:10.754Z,7.78
2023-05-15T11:26:14.707Z,8.50
2023-05-15T11:31:16.007Z,6.65
2023-05-15T11:36:18.508Z,5.15
2023-05-15T11:41:21.702Z,6.43
2023-05-15T11:46:22.941Z,4.65
2023-05-15T11:51:26.231Z,7.80
2023-05-15T11:56:29.245Z,7.32
2023-05-15T12:01:40.158Z,8.35
2023-05-15T12:06:42.701Z,10.93
2023-05-15T12:11:49.532Z,11.43
2023-05-15T12:16:53.378Z,14.57
2023-05-15T12:21:55.573Z,10.55
2023-05-15T12:26:57.614Z,11.55
2023-05-15T12:31:58.712Z,12.30
2023-05-15T12:37:00.952Z,16.90
2023-05-15T12:42:01.662Z,13.23
2023-05-15T12:47:02.462Z,9.00
2023-05-15T12:52:10.662Z,9.70
2023-05-15T12:57:12.760Z,8.65
2023-05-15T13:02:14.387Z,7.80
2023-05-15T13:07:17.696Z,7.53
2023-05-15T13:12:20.209Z,8.27
2023-05-15T13:17:23.274Z,6.97
2023-05-15T13:22:25.741Z,11.75
2023-05-15T13:27:27.210Z,17.83
2023-05-15T13:32:28.021Z,15.48
2023-05-15T13:37:30.063Z,12.75
2023-05-15T13:42:30.780Z,13.07
2023-05-15T13:47:31.505Z,15.90
2023-05-15T13:52:33.527Z,16.13
2023-05-15T13:57:34.213Z,16.50
2023-05-15T14:02:35.036Z,19.25
2023-05-15T14:07:37.072Z,21.38
2023-05-15T14:12:38.209Z,12.70
2023-05-15T14:17:39.564Z,15.98
2023-05-15T14:22:41.888Z,14.57
2023-05-15T14:27:42.581Z,13.88
2023-05-15T14:32:43.459Z,10.35
2023-05-15T14:37:45.618Z,14.70
2023-05-15T14:42:46.273Z,9.10
2023-05-15T14:47:47.057Z,9.88
2023-05-15T14:53:12.196Z,10.85
2023-05-15T14:58:12.871Z,8.15
2023-05-15T15:03:13.646Z,10.63
2023-05-15T15:08:15.800Z,6.90
2023-05-15T15:13:17.035Z,8.05
2023-05-15T15:18:17.742Z,10.32
2023-05-15T15:23:19.815Z,9.00
2023-05-15T15:28:20.559Z,10.27
2023-05-15T15:33:21.279Z,10.30
2023-05-15T15:38:23.449Z,7.93
2023-05-15T15:43:24.107Z,10.00
2023-05-15T15:48:24.790Z,12.85
2023-05-15T15:53:27.009Z,8.82
2023-05-15T15:58:27.700Z,12.43
2023-05-15T16:03:28.591Z,8.02
2023-05-15T16:08:30.666Z,8.43
2023-05-15T16:13:31.425Z,12.30
2023-05-15T16:18:32.092Z,8.30
2023-05-15T16:23:35.995Z,10.95
2023-05-15T16:28:36.836Z,11.85
2023-05-15T16:33:37.992Z,17.52
2023-05-15T16:38:40.246Z,9.27
2023-05-15T16:43:40.931Z,10.95
2023-05-15T16:48:41.625Z,11.73
2023-05-15T16:53:44.323Z,10.00
2023-05-15T16:58:45.024Z,26.90
2023-05-15T17:03:45.916Z,11.35
2023-05-15T17:08:48.213Z,11.77
2023-05-15T17:13:48.904Z,8.50
2023-05-15T17:18:49.723Z,12.98
2023-05-15T17:23:53.274Z,16.45
2023-05-15T17:28:54.063Z,9.50
2023-05-15T17:33:54.749Z,12.43
2023-05-15T17:38:56.800Z,10.20
2023-05-15T17:43:57.644Z,12.50
2023-05-15T17:48:58.308Z,15.90
2023-05-15T17:54:00.377Z,16.85
2023-05-15T17:59:01.225Z,12.75
2023-05-15T18:04:01.930Z,13.98
2023-05-15T18:09:05.145Z,13.85
2023-05-15T18:14:06.168Z,12.27
2023-05-15T18:19:07.169Z,18.48
2023-05-15T18:24:09.432Z,12.18
2023-05-15T18:29:34.952Z,11.70
2023-05-15T18:34:35.690Z,11.82
2023-05-15T18:39:39.638Z,14.02
2023-05-15T18:44:40.341Z,11.68
2023-05-15T18:49:41.091Z,11.52
2023-05-15T18:54:43.111Z,16.30
2023-05-15T18:59:44.497Z,12.25
2023-05-15T19:04:45.330Z,13.77
2023-05-15T19:09:47.426Z,11.55
2023-05-15T19:14:48.201Z,12.77
2023-05-15T19:19:48.877Z,17.33
2023-05-15T19:24:51.031Z,15.40
2023-05-15T19:29:52.037Z,15.35
2023-05-15T19:34:52.738Z,18.88
2023-05-15T19:39:55.792Z,14.98
2023-05-15T19:44:56.492Z,17.08
2023-05-15T19:49:57.450Z,21.30
2023-05-15T19:54:59.486Z,21.38
2023-05-15T20:00:00.224Z,24.35
2023-05-15T20:05:01.218Z,17.08
2023-05-15T20:10:03.379Z,20.25
2023-05-15T20:15:04.296Z,20.98
2023-05-15T20:20:08.278Z,26.95
2023-05-15T20:25:11.464Z,22.55
2023-05-15T20:30:12.825Z,22.30
2023-05-15T20:35:13.509Z,24.73
2023-05-15T20:40:16.354Z,26.90
2023-05-15T20:45:17.194Z,27.25
2023-05-15T20:50:19.046Z,24.30
2023-05-15T20:55:21.725Z,26.40
2023-05-15T21:00:22.461Z,24.83
2023-05-15T21:05:23.489Z,23.48
2023-05-15T21:10:25.992Z,22.92
2023-05-15T21:15:26.948Z,23.45
2023-05-15T21:20:27.905Z,18.10
2023-05-15T21:25:30.114Z,18.83
2023-05-15T21:30:30.914Z,15.88
2023-05-15T21:35:31.797Z,13.52
2023-05-15T21:40:34.500Z,11.88
2023-05-15T21:45:35.173Z,14.38
2023-05-15T21:50:36.053Z,13.77
2023-05-15T21:55:38.102Z,16.08
2023-05-15T22:00:40.358Z,10.75
2023-05-15T22:05:41.055Z,13.25
2023-05-15T22:10:43.292Z,10.20
2023-05-15T22:15:44.279Z,13.98
2023-05-15T22:20:45.497Z,13.80
2023-05-15T22:25:49.083Z,10.32
2023-05-15T22:30:50.061Z,12.95
2023-05-15T22:35:51.493Z,10.48
2023-05-15T22:40:53.923Z,10.57
2023-05-15T22:45:55.064Z,10.60
2023-05-15T22:50:56.297Z,10.95
2023-05-15T22:55:58.357Z,18.48
2023-05-15T23:00:59.772Z,11.63
2023-05-15T23:06:00.453Z,9.93
2023-05-15T23:11:03.555Z,11.00
2023-05-15T23:16:04.392Z,17.33
2023-05-15T23:21:05.134Z,11.65
2023-05-15T23:26:07.193Z,12.80
2023-05-15T23:31:08.120Z,12.93
2023-05-15T23:36:09.083Z,13.85
2023-05-15T23:41:11.061Z,9.35
2023-05-15T23:46:11.807Z,11.32
2023-05-15T23:51:12.560Z,12.93
2023-05-15T23:56:14.575Z,13.38
